createdAt,value
2022-12-31T00:04:33.100Z,3.77
2022-12-31T00:09:37.761Z,4.47
2022-12-31T00:14:39.742Z,4.03
2022-12-31T00:19:41.600Z,4.40
2022-12-31T00:24:50.757Z,3.85
2022-12-31T00:29:52.631Z,3.72
2022-12-31T00:34:54.590Z,3.80
2022-12-31T00:39:57.879Z,3.92
2022-12-31T00:44:59.767Z,4.05
2022-12-31T00:50:01.656Z,4.80
2022-12-31T00:55:03.764Z,5.15
2022-12-31T01:05:09.628Z,3.67
2022-12-31T01:10:11.598Z,4.93
2022-12-31T01:15:14.486Z,4.93
2022-12-31T01:20:16.493Z,4.82
2022-12-31T01:25:18.346Z,5.90
2022-12-31T01:30:20.447Z,6.10
2022-12-31T01:40:27.719Z,5.23
2022-12-31T01:45:29.735Z,5.35
2022-12-31T01:50:36.044Z,5.20
2022-12-31T01:55:48.619Z,5.00
2022-12-31T02:05:38.965Z,3.40
2022-12-31T02:10:41.882Z,4.05
2022-12-31T02:21:32.428Z,2.60
2022-12-31T02:26:55.329Z,2.97
2022-12-31T02:32:14.475Z,3.03
2022-12-31T02:37:20.631Z,3.25
2022-12-31T02:42:25.667Z,3.08
2022-12-31T02:47:57.327Z,3.80
2022-12-31T02:53:11.349Z,2.53
2022-12-31T02:59:04.011Z,2.15
2022-12-31T03:09:37.148Z,13.98
2022-12-31T03:14:42.525Z,6.22
2022-12-31T03:20:05.718Z,3.20
2022-12-31T03:25:33.829Z,1.92
2022-12-31T03:30:39.243Z,1.50
2022-12-31T03:35:43.143Z,1.30
2022-12-31T03:40:48.404Z,1.33
2022-12-31T03:45:54.326Z,1.48
2022-12-31T03:51:10.424Z,1.05
2022-12-31T03:56:16.257Z,1.40
2022-12-31T04:01:24.527Z,1.35
2022-12-31T04:06:32.683Z,1.35
2022-12-31T04:11:35.864Z,0.95
2022-12-31T04:16:38.336Z,1.15
2022-12-31T04:21:40.257Z,1.55
2022-12-31T04:26:44.058Z,1.50
2022-12-31T04:31:47.644Z,1.20
2022-12-31T04:36:55.644Z,1.50
2022-12-31T04:41:59.438Z,1.42
2022-12-31T04:52:03.675Z,1.70
2022-12-31T05:08:07.236Z,1.98
2022-12-31T05:13:12.147Z,2.15
2022-12-31T05:18:18.000Z,2.40
2022-12-31T05:23:22.494Z,2.70
2022-12-31T05:28:28.086Z,2.13
2022-12-31T05:33:30.608Z,2.53
2022-12-31T05:38:34.035Z,2.20
2022-12-31T05:43:36.045Z,1.90
2022-12-31T05:48:37.953Z,2.08
2022-12-31T05:53:40.008Z,2.08
2022-12-31T05:58:41.825Z,1.80
2022-12-31T06:03:46.916Z,1.70
2022-12-31T06:08:51.391Z,2.08
2022-12-31T06:13:53.496Z,1.95
2022-12-31T06:18:55.369Z,1.83
2022-12-31T06:23:57.467Z,2.00
2022-12-31T06:29:08.219Z,2.22
2022-12-31T06:34:13.845Z,2.00
2022-12-31T06:39:15.684Z,2.60
2022-12-31T06:44:17.552Z,2.65
2022-12-31T06:49:19.401Z,2.42
2022-12-31T06:54:21.413Z,2.45
2022-12-31T06:59:28.903Z,3.20
2022-12-31T07:05:05.016Z,2.60
2022-12-31T07:10:29.716Z,4.13
2022-12-31T07:15:56.092Z,4.28
2022-12-31T07:27:13.815Z,3.38
2022-12-31T07:33:00.356Z,3.35
2022-12-31T07:38:43.168Z,3.28
2022-12-31T07:44:34.018Z,2.90
2022-12-31T07:49:51.621Z,2.88
2022-12-31T07:55:01.070Z,3.45
2022-12-31T08:00:23.775Z,3.17
2022-12-31T08:05:55.009Z,3.28
2022-12-31T08:11:36.489Z,3.40
2022-12-31T08:16:48.540Z,3.65
2022-12-31T08:22:30.533Z,3.25
2022-12-31T08:28:07.246Z,3.72
2022-12-31T08:33:35.547Z,3.75
2022-12-31T08:38:37.448Z,6.78
2022-12-31T08:43:58.778Z,7.55
2022-12-31T08:49:10.684Z,6.32
2022-12-31T09:30:08.317Z,5.57
2022-12-31T09:35:40.799Z,5.78
2022-12-31T09:41:16.620Z,5.20
2022-12-31T09:46:59.044Z,5.22
2022-12-31T09:52:28.665Z,5.20
2022-12-31T10:04:23.414Z,4.47
2022-12-31T10:10:03.605Z,5.00
2022-12-31T10:15:53.770Z,4.47
2022-12-31T10:21:35.945Z,7.00
2022-12-31T10:27:06.892Z,6.70
2022-12-31T10:32:50.764Z,5.30
2022-12-31T10:38:20.973Z,5.00
2022-12-31T10:43:46.862Z,3.70
2022-12-31T10:49:21.177Z,3.70
2022-12-31T10:55:09.631Z,3.88
2022-12-31T11:06:29.971Z,2.90
2022-12-31T11:12:10.303Z,3.00
2022-12-31T11:17:48.409Z,2.65
2022-12-31T11:23:22.114Z,2.60
2022-12-31T11:29:12.142Z,3.55
2022-12-31T11:34:42.193Z,3.25
2022-12-31T11:40:26.167Z,3.13
2022-12-31T11:46:20.100Z,3.70
2022-12-31T11:52:29.844Z,4.38
2022-12-31T12:03:36.920Z,2.63
2022-12-31T12:08:47.567Z,2.85
2022-12-31T12:13:57.368Z,2.97
2022-12-31T12:19:11.547Z,2.70
2022-12-31T12:24:34.321Z,2.72
2022-12-31T12:29:42.597Z,2.97
2022-12-31T12:34:50.421Z,2.80
2022-12-31T12:40:33.444Z,2.70
2022-12-31T12:45:52.548Z,2.70
2022-12-31T12:50:57.639Z,2.70
2022-12-31T12:56:06.911Z,2.60
2022-12-31T13:01:35.067Z,2.50
2022-12-31T13:06:52.197Z,3.17
2022-12-31T13:12:12.602Z,2.40
2022-12-31T13:17:20.185Z,2.63
2022-12-31T13:22:42.300Z,2.53
2022-12-31T13:27:53.133Z,2.42
2022-12-31T13:33:07.107Z,2.23
2022-12-31T13:44:08.941Z,2.38
2022-12-31T13:49:47.111Z,2.13
2022-12-31T13:55:11.200Z,2.58
2022-12-31T14:00:21.737Z,10.05
2022-12-31T14:05:36.716Z,3.70
2022-12-31T14:17:08.091Z,2.15
2022-12-31T14:22:30.389Z,2.47
2022-12-31T14:27:42.205Z,3.00
2022-12-31T14:32:48.020Z,2.33
2022-12-31T14:38:06.184Z,2.40
2022-12-31T14:43:36.740Z,2.10
2022-12-31T14:49:16.221Z,2.45
2022-12-31T14:54:39.061Z,2.47
2022-12-31T14:59:55.576Z,1.80
2022-12-31T15:05:10.753Z,1.80
2022-12-31T15:10:51.973Z,2.10
2022-12-31T15:16:39.905Z,2.20
2022-12-31T15:22:10.033Z,1.85
2022-12-31T15:27:37.498Z,2.30
2022-12-31T15:32:51.416Z,2.70
2022-12-31T15:38:35.654Z,2.10
2022-12-31T15:43:50.608Z,2.28
2022-12-31T15:49:15.659Z,2.30
2022-12-31T15:54:39.741Z,2.22
2022-12-31T15:59:47.534Z,2.10
2022-12-31T16:05:05.904Z,2.40
2022-12-31T16:10:17.348Z,2.85
2022-12-31T16:15:29.524Z,2.83
2022-12-31T16:20:38.594Z,3.53
2022-12-31T16:25:53.043Z,3.13
2022-12-31T16:31:11.167Z,2.95
2022-12-31T16:36:22.485Z,2.70
2022-12-31T16:41:43.460Z,3.58
2022-12-31T16:46:54.368Z,3.38
2022-12-31T16:52:04.716Z,3.17
2022-12-31T16:57:21.356Z,3.60
2022-12-31T17:02:40.383Z,3.80
2022-12-31T17:07:45.303Z,3.65
2022-12-31T17:18:40.098Z,3.10
2022-12-31T17:28:51.902Z,2.80
2022-12-31T17:34:05.052Z,3.33
2022-12-31T17:39:48.162Z,2.92
2022-12-31T17:45:00.547Z,3.15
2022-12-31T17:50:27.441Z,3.37
2022-12-31T17:55:35.025Z,3.00
2022-12-31T18:00:43.043Z,4.10
2022-12-31T18:06:10.264Z,3.53
2022-12-31T18:11:24.374Z,3.28
2022-12-31T18:16:27.623Z,3.47
2022-12-31T18:21:34.768Z,3.75
2022-12-31T18:26:36.634Z,3.97
2022-12-31T18:36:42.042Z,3.33
2022-12-31T18:41:53.219Z,3.55
2022-12-31T18:46:59.802Z,5.83
2022-12-31T18:52:05.267Z,4.63
2022-12-31T18:57:15.862Z,3.92
2022-12-31T19:02:45.808Z,3.38
2022-12-31T19:07:48.079Z,3.15
2022-12-31T19:12:51.536Z,3.65
2022-12-31T19:17:55.919Z,3.60
2022-12-31T19:23:00.854Z,3.67
2022-12-31T19:28:17.994Z,3.72
2022-12-31T19:33:39.542Z,3.90
2022-12-31T19:38:47.118Z,4.32
2022-12-31T19:43:49.113Z,4.28
2022-12-31T19:54:08.060Z,4.13
2022-12-31T19:59:15.915Z,4.70
2022-12-31T20:04:18.816Z,4.10
2022-12-31T20:09:20.661Z,4.55
2022-12-31T20:14:27.527Z,4.13
2022-12-31T20:19:32.902Z,5.15
2022-12-31T20:24:44.130Z,5.82
2022-12-31T20:30:03.447Z,6.33
2022-12-31T20:35:10.173Z,5.75
2022-12-31T20:40:24.150Z,7.03
2022-12-31T20:45:28.641Z,7.65
2022-12-31T20:50:33.824Z,6.88
2022-12-31T20:55:40.687Z,6.82
2022-12-31T21:01:00.759Z,6.07
2022-12-31T21:06:14.413Z,6.25
2022-12-31T21:11:40.347Z,6.18
2022-12-31T21:16:50.019Z,6.72
2022-12-31T21:21:52.701Z,7.85
2022-12-31T21:26:57.664Z,7.97
2022-12-31T21:31:59.885Z,6.68
2022-12-31T21:37:02.463Z,6.28
2022-12-31T21:42:07.436Z,6.78
2022-12-31T21:47:35.652Z,7.43
2022-12-31T21:52:44.763Z,6.38
2022-12-31T21:58:26.788Z,6.88
2022-12-31T22:03:31.931Z,6.53
2022-12-31T22:08:40.316Z,6.55
2022-12-31T22:13:45.755Z,5.38
2022-12-31T22:18:50.038Z,6.20
2022-12-31T22:24:01.104Z,7.30
2022-12-31T22:29:06.920Z,7.00
2022-12-31T22:34:12.505Z,6.78
2022-12-31T22:39:44.706Z,5.65
2022-12-31T22:44:41.861Z,5.95
2022-12-31T22:49:45.660Z,5.68
2022-12-31T22:54:48.789Z,6.15
2022-12-31T22:59:54.453Z,5.82
2022-12-31T23:05:15.816Z,7.03
2022-12-31T23:10:39.499Z,12.88
2022-12-31T23:16:09.324Z,18.25
2022-12-31T23:21:32.841Z,10.68
2022-12-31T23:26:44.171Z,8.25
2022-12-31T23:31:50.729Z,6.95
2022-12-31T23:36:54.377Z,6.72
2022-12-31T23:42:00.838Z,6.53
2022-12-31T23:47:03.632Z,6.90
2022-12-31T23:52:08.230Z,6.68
2022-12-31T23:57:14.430Z,7.03
